createdAt,value
2023-05-08T00:00:10.184Z,21.37
2023-05-08T00:02:37.052Z,21.35
2023-05-08T00:05:03.985Z,21.25
2023-05-08T00:07:30.786Z,21.22
2023-05-08T00:09:57.610Z,21.13
2023-05-08T00:12:24.316Z,21.18
2023-05-08T00:14:50.941Z,21.00
2023-05-08T00:17:17.656Z,20.87
2023-05-08T00:19:44.253Z,20.90
2023-05-08T00:22:11.129Z,20.88
2023-05-08T00:24:37.762Z,20.67
2023-05-08T00:27:04.450Z,20.74
2023-05-08T00:29:31.198Z,20.75
2023-05-08T00:31:57.875Z,20.54
2023-05-08T00:34:24.515Z,20.73
2023-05-08T00:36:51.171Z,20.62
2023-05-08T00:39:18.485Z,20.44
2023-05-08T00:41:45.405Z,20.56
2023-05-08T00:44:12.011Z,20.67
2023-05-08T00:46:39.417Z,20.62
2023-05-08T00:49:06.783Z,20.63
2023-05-08T00:51:34.074Z,20.74
2023-05-08T00:54:00.849Z,20.81
2023-05-08T00:56:28.418Z,20.80
2023-05-08T00:58:55.327Z,20.85
2023-05-08T01:01:22.697Z,20.86
2023-05-08T01:03:49.793Z,20.79
2023-05-08T01:06:16.933Z,20.76
2023-05-08T01:08:46.684Z,20.85
2023-05-08T01:11:13.332Z,20.89
2023-05-08T01:14:02.861Z,20.84
2023-05-08T01:16:45.511Z,20.93
2023-05-08T01:19:40.900Z,20.91
2023-05-08T01:22:29.782Z,20.80
2023-05-08T01:25:27.193Z,20.83
2023-05-08T01:28:02.485Z,20.74
2023-05-08T01:30:32.077Z,20.60
2023-05-08T01:33:17.281Z,20.57
2023-05-08T01:35:51.871Z,20.61
2023-05-08T01:38:37.654Z,20.65
2023-05-08T01:41:12.039Z,20.69
2023-05-08T01:43:52.209Z,20.76
2023-05-08T01:46:24.146Z,20.76
2023-05-08T01:49:12.647Z,20.81
2023-05-08T01:51:44.811Z,20.64
2023-05-08T01:54:16.409Z,20.65
2023-05-08T01:56:45.374Z,20.57
2023-05-08T01:59:17.065Z,20.46
2023-05-08T02:01:46.131Z,20.30
2023-05-08T02:04:16.257Z,20.16
2023-05-08T02:06:43.800Z,20.11
2023-05-08T02:09:12.549Z,20.11
2023-05-08T02:11:42.427Z,20.09
2023-05-08T02:14:11.615Z,20.04
2023-05-08T02:16:40.452Z,20.01
2023-05-08T02:19:08.449Z,19.87
2023-05-08T02:21:36.921Z,19.89
2023-05-08T02:24:04.612Z,19.92
2023-05-08T02:26:32.710Z,19.75
2023-05-08T02:29:02.294Z,19.79
2023-05-08T02:31:30.400Z,19.90
2023-05-08T02:33:59.595Z,19.84
2023-05-08T02:36:28.888Z,19.86
2023-05-08T02:38:58.870Z,19.97
2023-05-08T02:41:29.776Z,19.99
2023-05-08T02:43:57.044Z,20.02
2023-05-08T02:47:07.302Z,20.02
2023-05-08T02:50:03.674Z,20.11
2023-05-08T02:52:37.948Z,20.04
2023-05-08T02:55:27.320Z,20.13
2023-05-08T02:58:32.576Z,20.10
2023-05-08T03:01:24.385Z,19.97
2023-05-08T03:04:07.742Z,20.03
2023-05-08T03:06:40.262Z,20.02
2023-05-08T03:09:12.474Z,19.90
2023-05-08T03:11:42.416Z,19.86
2023-05-08T03:14:12.621Z,19.79
2023-05-08T03:16:42.890Z,19.80
2023-05-08T03:19:23.095Z,19.85
2023-05-08T03:21:51.846Z,19.73
2023-05-08T03:24:20.375Z,19.57
2023-05-08T03:26:47.717Z,19.55
2023-05-08T03:29:15.649Z,19.52
2023-05-08T03:31:44.597Z,19.51
2023-05-08T03:34:13.527Z,19.55
2023-05-08T03:36:40.863Z,19.52
2023-05-08T03:39:08.124Z,19.44
2023-05-08T03:41:34.952Z,19.49
2023-05-08T03:44:03.677Z,19.41
2023-05-08T03:46:35.715Z,19.34
2023-05-08T03:49:06.040Z,19.43
2023-05-08T03:51:33.225Z,19.42
2023-05-08T03:54:00.013Z,19.43
2023-05-08T03:56:28.085Z,19.52
2023-05-08T03:59:17.666Z,19.53
2023-05-08T04:01:53.956Z,19.60
2023-05-08T04:04:39.974Z,19.64
2023-05-08T04:07:11.454Z,19.68
2023-05-08T04:09:51.590Z,19.72
2023-05-08T04:12:22.351Z,19.83
2023-05-08T04:15:11.656Z,19.94
2023-05-08T04:17:44.123Z,19.91
2023-05-08T04:20:16.566Z,19.89
2023-05-08T04:22:46.206Z,19.99
2023-05-08T04:25:16.462Z,19.94
2023-05-08T04:27:45.242Z,19.84
2023-05-08T04:30:13.378Z,19.86
2023-05-08T04:32:42.321Z,19.87
2023-05-08T04:35:13.281Z,19.96
2023-05-08T04:37:42.050Z,20.03
2023-05-08T04:40:10.512Z,19.95
2023-05-08T04:42:39.456Z,19.97
2023-05-08T04:45:06.931Z,20.06
2023-05-08T04:47:33.690Z,20.07
2023-05-08T04:50:02.751Z,20.10
2023-05-08T04:52:31.236Z,20.09
2023-05-08T04:54:57.979Z,20.11
2023-05-08T04:57:24.576Z,20.11
2023-05-08T04:59:51.518Z,20.10
2023-05-08T05:02:18.472Z,20.12
2023-05-08T05:04:46.614Z,20.20
2023-05-08T05:07:14.042Z,20.18
2023-05-08T05:09:41.019Z,20.18
2023-05-08T05:12:08.124Z,20.23
2023-05-08T05:14:35.564Z,20.21
2023-05-08T05:17:02.360Z,20.29
2023-05-08T05:19:29.402Z,20.30
2023-05-08T05:21:56.289Z,20.40
2023-05-08T05:24:23.123Z,20.53
2023-05-08T05:26:49.853Z,20.58
2023-05-08T05:29:16.928Z,20.66
2023-05-08T05:31:43.826Z,20.68
2023-05-08T05:34:10.788Z,20.78
2023-05-08T05:36:37.488Z,20.82
2023-05-08T05:39:04.650Z,20.88
2023-05-08T05:41:32.513Z,20.80
2023-05-08T05:43:59.209Z,20.85
2023-05-08T05:46:32.197Z,20.86
2023-05-08T05:49:01.216Z,20.63
2023-05-08T05:51:29.375Z,20.77
2023-05-08T05:53:57.137Z,20.79
2023-05-08T05:56:24.722Z,20.75
2023-05-08T05:58:51.708Z,20.62
2023-05-08T06:01:18.405Z,20.63
2023-05-08T06:03:45.154Z,20.72
2023-05-08T06:06:12.450Z,20.75
2023-05-08T06:08:39.280Z,20.70
2023-05-08T06:11:05.988Z,20.71
2023-05-08T06:13:32.907Z,20.84
2023-05-08T06:16:00.311Z,20.88
2023-05-08T06:18:27.003Z,21.06
2023-05-08T06:21:00.118Z,21.01
2023-05-08T06:23:27.072Z,21.13
2023-05-08T06:25:54.197Z,21.24
2023-05-08T06:28:22.448Z,21.33
2023-05-08T06:30:49.274Z,21.60
2023-05-08T06:33:15.959Z,21.79
2023-05-08T06:35:46.440Z,21.54
2023-05-08T06:38:13.812Z,21.64
2023-05-08T06:40:46.584Z,21.58
2023-05-08T06:43:13.469Z,21.52
2023-05-08T06:45:40.569Z,21.46
2023-05-08T06:48:07.551Z,21.37
2023-05-08T06:50:37.198Z,21.16
2023-05-08T06:53:03.887Z,21.11
2023-05-08T06:55:30.596Z,21.00
2023-05-08T06:57:57.254Z,20.98
2023-05-08T07:00:24.179Z,20.93
2023-05-08T07:02:51.714Z,20.91
2023-05-08T07:05:19.915Z,20.86
2023-05-08T07:07:46.738Z,20.77
2023-05-08T07:10:13.408Z,20.64
2023-05-08T07:12:40.872Z,20.53
2023-05-08T07:15:24.148Z,20.47
2023-05-08T07:17:51.869Z,20.58
2023-05-08T07:20:18.524Z,20.79
2023-05-08T07:22:45.141Z,20.98
2023-05-08T07:25:12.992Z,21.12
2023-05-08T07:27:39.900Z,21.06
2023-05-08T07:30:07.282Z,20.99
2023-05-08T07:32:34.127Z,21.05
2023-05-08T07:35:02.782Z,21.12
2023-05-08T07:37:29.600Z,21.29
2023-05-08T07:39:56.245Z,21.29
2023-05-08T07:42:23.199Z,21.21
2023-05-08T07:44:54.883Z,21.19
2023-05-08T07:47:22.597Z,21.44
2023-05-08T07:49:49.425Z,21.46
2023-05-08T07:52:16.768Z,21.55
2023-05-08T07:54:43.721Z,21.73
2023-05-08T07:57:11.110Z,21.78
2023-05-08T07:59:37.707Z,21.81
2023-05-08T08:02:04.368Z,21.71
2023-05-08T08:04:31.117Z,21.53
2023-05-08T08:06:57.830Z,21.65
2023-05-08T08:09:24.567Z,21.89
2023-05-08T08:11:51.284Z,22.25
2023-05-08T08:14:17.986Z,22.30
2023-05-08T08:16:44.679Z,22.43
2023-05-08T08:19:11.369Z,22.76
2023-05-08T08:21:43.214Z,23.05
2023-05-08T08:24:10.130Z,23.03
2023-05-08T08:26:36.977Z,22.83
2023-05-08T08:29:03.852Z,22.94
2023-05-08T08:31:30.628Z,23.11
2023-05-08T08:33:57.612Z,23.46
2023-05-08T08:36:24.259Z,23.70
2023-05-08T08:38:50.869Z,23.79
2023-05-08T08:41:17.653Z,24.08
2023-05-08T08:43:44.334Z,24.65
2023-05-08T08:46:15.510Z,25.38
2023-05-08T08:48:45.402Z,26.49
2023-05-08T08:51:25.501Z,28.31
2023-05-08T08:54:00.678Z,29.95
2023-05-08T08:56:28.853Z,32.02
2023-05-08T08:58:59.226Z,33.12
2023-05-08T09:01:29.242Z,33.70
2023-05-08T09:03:59.814Z,35.20
2023-05-08T09:06:27.585Z,37.01
2023-05-08T09:08:58.454Z,37.88
2023-05-08T09:11:25.767Z,37.53
2023-05-08T09:13:52.557Z,36.13
2023-05-08T09:16:19.345Z,35.95
2023-05-08T09:18:46.045Z,34.46
2023-05-08T09:21:13.003Z,34.06
2023-05-08T09:24:00.160Z,33.71
2023-05-08T09:26:32.690Z,32.66
2023-05-08T09:29:09.737Z,31.52
2023-05-08T09:31:39.727Z,30.93
2023-05-08T09:34:11.201Z,30.22
2023-05-08T09:36:40.619Z,29.71
2023-05-08T09:39:14.248Z,28.89
2023-05-08T09:42:00.181Z,28.32
2023-05-08T09:44:27.225Z,28.02
2023-05-08T09:47:14.140Z,27.81
2023-05-08T09:50:16.805Z,27.87
2023-05-08T09:52:47.941Z,28.31
2023-05-08T09:55:15.011Z,28.69
2023-05-08T09:57:53.815Z,29.28
2023-05-08T10:00:21.042Z,29.74
2023-05-08T10:03:02.334Z,30.03
2023-05-08T10:05:32.234Z,30.31
2023-05-08T10:08:21.283Z,31.62
2023-05-08T10:10:48.097Z,33.33
2023-05-08T10:13:15.306Z,33.11
2023-05-08T10:15:43.405Z,32.12
2023-05-08T10:18:12.198Z,31.40
2023-05-08T10:20:44.197Z,30.74
2023-05-08T10:23:16.840Z,29.84
2023-05-08T10:25:46.191Z,29.05
2023-05-08T10:28:28.074Z,28.31
2023-05-08T10:30:59.731Z,27.96
2023-05-08T10:33:31.376Z,27.60
2023-05-08T10:35:58.998Z,27.09
2023-05-08T10:38:25.976Z,26.61
2023-05-08T10:40:57.741Z,26.50
2023-05-08T10:43:25.444Z,26.34
2023-05-08T10:45:53.672Z,26.46
2023-05-08T10:48:32.631Z,28.53
2023-05-08T10:51:17.905Z,29.35
2023-05-08T10:53:50.933Z,31.14
2023-05-08T10:56:17.634Z,32.93
2023-05-08T10:58:44.223Z,33.38
2023-05-08T11:01:12.061Z,33.09
2023-05-08T11:03:44.818Z,33.70
2023-05-08T11:06:12.529Z,34.89
2023-05-08T11:08:48.768Z,34.43
2023-05-08T11:11:34.175Z,33.85
2023-05-08T11:14:07.068Z,33.74
2023-05-08T11:16:56.414Z,32.71
2023-05-08T11:19:25.082Z,32.07
2023-05-08T11:22:10.988Z,31.55
2023-05-08T11:24:39.378Z,31.44
2023-05-08T11:27:06.169Z,30.73
2023-05-08T11:29:33.170Z,30.92
2023-05-08T11:32:00.283Z,30.23
2023-05-08T11:34:42.661Z,29.87
2023-05-08T11:37:11.212Z,29.45
2023-05-08T11:39:38.171Z,29.42
2023-05-08T11:42:27.072Z,29.21
2023-05-08T11:45:13.200Z,28.63
2023-05-08T11:47:42.654Z,28.22
2023-05-08T11:50:11.615Z,27.80
2023-05-08T11:52:41.272Z,27.65
2023-05-08T11:55:10.145Z,27.23
2023-05-08T11:57:37.082Z,27.45
2023-05-08T12:00:12.020Z,27.54
2023-05-08T12:02:40.008Z,27.69
2023-05-08T12:05:08.077Z,27.91
2023-05-08T12:07:47.914Z,27.71
2023-05-08T12:10:16.022Z,27.83
2023-05-08T12:12:45.005Z,27.67
2023-05-08T12:15:14.384Z,27.74
2023-05-08T12:17:42.084Z,27.89
2023-05-08T12:20:14.337Z,27.90
2023-05-08T12:22:42.521Z,27.91
2023-05-08T12:25:11.945Z,27.87
2023-05-08T12:27:38.927Z,27.96
2023-05-08T12:30:10.926Z,28.06
2023-05-08T12:32:40.057Z,28.29
2023-05-08T12:35:08.742Z,28.31
2023-05-08T12:37:36.635Z,27.97
2023-05-08T12:40:04.852Z,27.79
2023-05-08T12:42:49.911Z,27.74
2023-05-08T12:45:25.604Z,28.22
2023-05-08T12:47:53.837Z,28.56
2023-05-08T12:50:21.847Z,28.73
2023-05-08T12:52:51.142Z,29.11
2023-05-08T12:55:25.806Z,29.42
2023-05-08T12:57:59.671Z,29.85
2023-05-08T13:00:39.737Z,30.03
2023-05-08T13:03:08.459Z,30.09
2023-05-08T13:05:37.457Z,29.93
2023-05-08T13:08:11.931Z,30.39
2023-05-08T13:10:47.736Z,30.75
2023-05-08T13:13:15.947Z,31.00
2023-05-08T13:15:43.184Z,30.77
2023-05-08T13:18:10.274Z,30.58
2023-05-08T13:20:37.989Z,30.79
2023-05-08T13:23:05.363Z,30.86
2023-05-08T13:25:33.062Z,30.84
2023-05-08T13:28:00.298Z,30.74
2023-05-08T13:30:27.311Z,30.38
2023-05-08T13:32:54.550Z,30.53
2023-05-08T13:35:21.786Z,30.60
2023-05-08T13:37:49.337Z,30.49
2023-05-08T13:40:16.468Z,30.06
2023-05-08T13:42:43.470Z,29.80
2023-05-08T13:45:10.855Z,29.55
2023-05-08T13:47:37.619Z,29.94
2023-05-08T13:50:04.549Z,29.51
2023-05-08T13:52:31.168Z,29.29
2023-05-08T13:54:58.305Z,29.38
2023-05-08T13:57:25.047Z,29.42
2023-05-08T13:59:51.816Z,29.48
2023-05-08T14:02:18.548Z,29.16
2023-05-08T14:04:45.249Z,29.19
2023-05-08T14:07:11.952Z,28.90
2023-05-08T14:09:38.620Z,29.15
2023-05-08T14:12:05.502Z,29.41
2023-05-08T14:14:33.136Z,29.48
2023-05-08T14:17:01.125Z,29.48
2023-05-08T14:19:27.799Z,29.55
2023-05-08T14:21:54.576Z,29.12
2023-05-08T14:24:21.280Z,28.41
2023-05-08T14:26:48.290Z,28.31
2023-05-08T14:29:15.493Z,28.36
2023-05-08T14:31:42.266Z,28.18
2023-05-08T14:34:08.966Z,27.72
2023-05-08T14:36:35.576Z,27.89
2023-05-08T14:39:03.117Z,27.93
2023-05-08T14:41:30.714Z,27.67
2023-05-08T14:43:57.842Z,27.53
2023-05-08T14:46:25.122Z,26.99
2023-05-08T14:48:51.796Z,26.84
2023-05-08T14:51:21.049Z,26.37
2023-05-08T14:53:47.830Z,26.24
2023-05-08T14:56:14.848Z,26.04
2023-05-08T14:58:41.610Z,25.66
2023-05-08T15:01:08.239Z,25.50
2023-05-08T15:03:35.011Z,25.26
2023-05-08T15:06:02.264Z,24.97
2023-05-08T15:08:28.995Z,24.88
2023-05-08T15:10:56.053Z,24.82
2023-05-08T15:13:22.798Z,24.55
2023-05-08T15:15:49.571Z,24.39
2023-05-08T15:18:16.356Z,24.12
2023-05-08T15:20:43.018Z,23.75
2023-05-08T15:23:10.078Z,23.74
2023-05-08T15:25:36.795Z,23.71
2023-05-08T15:28:03.618Z,23.39
2023-05-08T15:30:30.455Z,23.28
2023-05-08T15:32:57.171Z,23.35
2023-05-08T15:35:23.847Z,23.44
2023-05-08T15:37:50.702Z,23.53
2023-05-08T15:40:17.408Z,23.50
2023-05-08T15:42:44.076Z,23.69
2023-05-08T15:45:10.808Z,23.80
2023-05-08T15:47:37.469Z,23.46
2023-05-08T15:50:04.402Z,23.47
2023-05-08T15:52:31.028Z,23.21
2023-05-08T15:54:57.728Z,22.91
2023-05-08T15:57:26.943Z,22.86
2023-05-08T15:59:53.621Z,22.80
2023-05-08T16:02:20.449Z,22.51
2023-05-08T16:04:47.168Z,22.54
2023-05-08T16:07:13.941Z,22.70
2023-05-08T16:09:40.633Z,22.67
2023-05-08T16:12:07.454Z,22.68
2023-05-08T16:14:35.468Z,22.93
2023-05-08T16:17:03.096Z,23.15
2023-05-08T16:19:29.861Z,23.36
2023-05-08T16:21:56.605Z,23.24
2023-05-08T16:24:23.307Z,23.31
2023-05-08T16:26:49.886Z,23.15
2023-05-08T16:29:16.505Z,23.20
2023-05-08T16:31:43.176Z,23.53
2023-05-08T16:34:09.870Z,23.68
2023-05-08T16:36:36.752Z,23.82
2023-05-08T16:39:03.542Z,23.74
2023-05-08T16:41:30.214Z,23.83
2023-05-08T16:43:56.816Z,23.69
2023-05-08T16:46:30.101Z,23.46
2023-05-08T16:48:57.728Z,23.21
2023-05-08T16:51:24.451Z,23.02
2023-05-08T16:53:51.226Z,23.27
2023-05-08T16:56:18.102Z,23.37
2023-05-08T16:58:44.770Z,23.48
2023-05-08T17:01:11.748Z,23.53
2023-05-08T17:03:38.626Z,23.57
2023-05-08T17:06:09.189Z,23.58
2023-05-08T17:08:35.820Z,23.19
2023-05-08T17:11:02.551Z,23.17
2023-05-08T17:13:29.329Z,23.39
2023-05-08T17:15:56.291Z,23.29
2023-05-08T17:18:22.958Z,23.36
2023-05-08T17:20:50.841Z,23.44
2023-05-08T17:23:17.546Z,23.48
2023-05-08T17:25:44.224Z,23.44
2023-05-08T17:28:13.929Z,23.31
2023-05-08T17:30:40.567Z,23.24
2023-05-08T17:33:07.377Z,23.29
2023-05-08T17:35:34.236Z,23.27
2023-05-08T17:38:00.911Z,23.45
2023-05-08T17:40:28.859Z,23.27
2023-05-08T17:42:55.683Z,23.43
2023-05-08T17:45:22.343Z,23.53
2023-05-08T17:47:49.073Z,23.31
2023-05-08T17:50:15.965Z,23.30
2023-05-08T17:52:42.725Z,23.17
2023-05-08T17:55:10.202Z,23.04
2023-05-08T17:57:36.934Z,22.99
2023-05-08T18:00:05.061Z,23.04
2023-05-08T18:02:35.428Z,23.05
2023-05-08T18:05:02.186Z,23.13
2023-05-08T18:07:29.054Z,23.20
2023-05-08T18:09:55.835Z,23.13
2023-05-08T18:12:22.775Z,23.18
2023-05-08T18:14:49.423Z,23.07
2023-05-08T18:17:19.166Z,23.01
2023-05-08T18:19:46.326Z,22.91
2023-05-08T18:22:13.033Z,23.08
2023-05-08T18:24:39.642Z,23.06
2023-05-08T18:27:06.392Z,22.86
2023-05-08T18:29:33.063Z,22.73
2023-05-08T18:31:59.660Z,22.59
2023-05-08T18:34:26.360Z,22.58
2023-05-08T18:36:54.198Z,22.59
2023-05-08T18:39:22.099Z,22.71
2023-05-08T18:41:48.780Z,22.80
2023-05-08T18:44:15.558Z,22.85
2023-05-08T18:46:42.462Z,22.89
2023-05-08T18:49:09.205Z,22.85
2023-05-08T18:51:36.079Z,22.81
2023-05-08T18:54:02.699Z,22.79
2023-05-08T18:56:29.427Z,22.78
2023-05-08T18:58:56.343Z,22.70
2023-05-08T19:01:23.728Z,22.74
2023-05-08T19:03:50.669Z,22.75
2023-05-08T19:06:17.362Z,22.78
2023-05-08T19:08:44.537Z,22.75
2023-05-08T19:11:11.324Z,22.70
2023-05-08T19:13:38.398Z,22.59
2023-05-08T19:16:05.636Z,22.66
2023-05-08T19:18:32.309Z,22.69
2023-05-08T19:20:59.001Z,22.74
2023-05-08T19:23:25.646Z,22.67
2023-05-08T19:25:52.811Z,22.60
2023-05-08T19:28:19.646Z,22.56
2023-05-08T19:30:46.903Z,22.65
2023-05-08T19:33:13.645Z,22.65
2023-05-08T19:35:40.341Z,22.66
2023-05-08T19:38:07.003Z,22.75
2023-05-08T19:40:44.557Z,22.78
2023-05-08T19:43:19.092Z,22.82
2023-05-08T19:45:45.794Z,22.86
2023-05-08T19:48:18.039Z,22.91
2023-05-08T19:50:45.060Z,22.98
2023-05-08T19:53:11.868Z,22.94
2023-05-08T19:55:38.615Z,22.91
2023-05-08T19:58:05.207Z,22.84
2023-05-08T20:00:31.917Z,22.71
2023-05-08T20:02:58.760Z,22.79
2023-05-08T20:05:25.670Z,22.79
2023-05-08T20:07:52.290Z,22.70
2023-05-08T20:10:19.093Z,22.61
2023-05-08T20:12:45.781Z,22.68
2023-05-08T20:15:12.673Z,22.65
2023-05-08T20:17:39.421Z,22.69
2023-05-08T20:20:06.787Z,22.68
2023-05-08T20:22:33.476Z,22.65
2023-05-08T20:25:01.566Z,22.67
2023-05-08T20:27:30.438Z,22.56
2023-05-08T20:29:57.255Z,22.40
2023-05-08T20:32:24.125Z,22.43
2023-05-08T20:34:50.746Z,22.45
2023-05-08T20:37:17.472Z,22.39
2023-05-08T20:39:45.004Z,22.40
2023-05-08T20:42:11.865Z,22.40
2023-05-08T20:44:38.608Z,22.19
2023-05-08T20:47:05.354Z,22.21
2023-05-08T20:49:32.047Z,21.92
2023-05-08T20:51:58.766Z,21.90
2023-05-08T20:54:25.539Z,21.70
2023-05-08T20:56:52.223Z,21.58
2023-05-08T20:59:18.989Z,21.67
2023-05-08T21:01:47.198Z,21.68
2023-05-08T21:04:13.918Z,21.75
2023-05-08T21:06:40.580Z,21.83
2023-05-08T21:09:07.337Z,21.93
2023-05-08T21:11:34.172Z,22.05
2023-05-08T21:14:00.900Z,21.99
2023-05-08T21:16:27.548Z,22.01
2023-05-08T21:18:55.492Z,22.00
2023-05-08T21:21:24.106Z,21.95
2023-05-08T21:23:50.702Z,21.85
2023-05-08T21:26:19.726Z,21.89
2023-05-08T21:28:46.439Z,21.89
2023-05-08T21:31:13.210Z,21.92
2023-05-08T21:33:39.868Z,21.95
2023-05-08T21:36:06.717Z,21.98
2023-05-08T21:38:34.068Z,22.01
2023-05-08T21:41:10.929Z,22.05
2023-05-08T21:43:37.592Z,22.06
2023-05-08T21:46:05.228Z,22.06
2023-05-08T21:48:32.030Z,22.08
2023-05-08T21:50:59.145Z,22.08
2023-05-08T21:53:25.996Z,22.09
2023-05-08T21:55:52.692Z,22.03
2023-05-08T21:58:19.550Z,22.01
2023-05-08T22:00:46.362Z,21.98
2023-05-08T22:03:13.143Z,21.90
2023-05-08T22:05:39.858Z,21.84
2023-05-08T22:08:06.461Z,21.78
2023-05-08T22:10:33.055Z,21.84
2023-05-08T22:13:01.344Z,21.84
2023-05-08T22:15:30.728Z,21.87
2023-05-08T22:17:58.794Z,21.86
2023-05-08T22:20:25.740Z,21.86
2023-05-08T22:22:52.400Z,21.81
2023-05-08T22:25:19.447Z,21.76
2023-05-08T22:27:46.377Z,21.68
2023-05-08T22:30:13.580Z,21.73
2023-05-08T22:32:40.378Z,21.81
2023-05-08T22:35:07.162Z,21.82
2023-05-08T22:37:33.733Z,21.80
2023-05-08T22:40:00.362Z,21.83
2023-05-08T22:42:27.027Z,21.82
2023-05-08T22:44:54.803Z,21.81
2023-05-08T22:47:21.577Z,21.84
2023-05-08T22:49:48.735Z,21.84
2023-05-08T22:52:15.385Z,21.77
2023-05-08T22:54:42.087Z,21.72
2023-05-08T22:57:08.782Z,21.73
2023-05-08T22:59:36.334Z,21.78
2023-05-08T23:02:02.991Z,21.80
2023-05-08T23:04:29.649Z,21.89
2023-05-08T23:06:56.589Z,21.83
2023-05-08T23:09:23.623Z,21.88
2023-05-08T23:11:50.325Z,21.86
2023-05-08T23:14:16.993Z,21.81
2023-05-08T23:16:43.668Z,21.87
2023-05-08T23:19:10.498Z,21.90
2023-05-08T23:21:37.216Z,21.85
2023-05-08T23:24:04.804Z,21.74
2023-05-08T23:26:31.516Z,21.75
2023-05-08T23:28:58.244Z,21.75
2023-05-08T23:31:24.929Z,21.77
2023-05-08T23:33:51.671Z,21.67
2023-05-08T23:36:18.390Z,21.65
2023-05-08T23:38:45.109Z,21.58
2023-05-08T23:41:12.111Z,21.53
2023-05-08T23:43:39.061Z,21.53
2023-05-08T23:46:06.443Z,21.46
2023-05-08T23:48:33.173Z,21.44
2023-05-08T23:50:59.796Z,21.43
2023-05-08T23:53:26.427Z,21.48
2023-05-08T23:55:53.116Z,21.37
2023-05-08T23:58:19.760Z,21.39
